createdAt,value
2022-11-15T06:00:39.590Z,9.99
2022-11-15T06:03:25.161Z,10.00
2022-11-15T06:06:16.277Z,10.01
2022-11-15T06:09:10.384Z,10.03
2022-11-15T06:12:12.577Z,10.03
2022-11-15T06:14:59.028Z,10.05
2022-11-15T06:17:51.943Z,10.07
2022-11-15T06:20:37.786Z,10.07
2022-11-15T06:23:26.243Z,10.08
2022-11-15T06:26:28.653Z,10.10
2022-11-15T06:29:18.277Z,10.11
2022-11-15T06:32:03.897Z,10.12
2022-11-15T06:35:00.280Z,10.14
2022-11-15T06:38:17.534Z,10.14
2022-11-15T06:41:06.247Z,10.17
2022-11-15T06:44:42.695Z,10.18
2022-11-15T06:47:37.903Z,10.21
2022-11-15T06:50:36.268Z,10.23
2022-11-15T06:53:25.961Z,10.24
2022-11-15T07:00:49.872Z,10.28
2022-11-15T07:08:07.113Z,10.31
2022-11-15T07:11:35.421Z,10.35
2022-11-15T07:14:23.735Z,10.37
2022-11-15T07:18:35.609Z,10.40
2022-11-15T07:21:27.382Z,10.43
2022-11-15T07:24:16.417Z,10.45
2022-11-15T07:27:02.596Z,10.48
2022-11-15T07:29:47.544Z,10.50
2022-11-15T07:32:43.895Z,10.53
2022-11-15T07:35:46.211Z,10.55
2022-11-15T07:39:17.452Z,10.56
2022-11-15T07:42:49.666Z,10.59
2022-11-15T07:45:58.850Z,10.61
2022-11-15T07:52:08.505Z,10.65
2022-11-15T07:55:25.492Z,10.69
2022-11-15T07:58:27.935Z,10.69
2022-11-15T08:05:25.092Z,10.73
2022-11-15T08:08:39.456Z,10.77
2022-11-15T08:11:41.853Z,10.80
2022-11-15T08:14:30.928Z,10.84
2022-11-15T08:17:20.344Z,10.87
2022-11-15T08:20:21.872Z,10.91
2022-11-15T08:23:44.786Z,10.95
2022-11-15T08:33:01.674Z,11.13
2022-11-15T08:35:47.143Z,11.21
2022-11-15T08:38:33.239Z,11.24
2022-11-15T08:41:32.498Z,11.31
2022-11-15T08:44:17.808Z,11.38
2022-11-15T08:47:03.237Z,11.44
2022-11-15T08:49:48.479Z,11.50
2022-11-15T08:52:34.675Z,11.56
2022-11-15T08:55:22.183Z,11.62
2022-11-15T08:58:10.571Z,11.67
2022-11-15T09:00:55.760Z,11.72
2022-11-15T09:03:42.533Z,11.77
2022-11-15T09:06:27.930Z,11.80
2022-11-15T09:09:13.070Z,11.84
2022-11-15T09:12:02.524Z,11.88
2022-11-15T09:14:47.746Z,11.90
2022-11-15T09:17:33.606Z,11.93
2022-11-15T09:20:18.844Z,11.94
2022-11-15T09:23:06.072Z,11.98
2022-11-15T09:25:52.014Z,12.00
2022-11-15T09:28:39.070Z,12.05
2022-11-15T09:31:25.725Z,12.09
2022-11-15T09:34:13.185Z,12.13
2022-11-15T09:36:58.151Z,12.16
2022-11-15T09:39:43.242Z,12.17
2022-11-15T09:42:47.314Z,12.21
2022-11-15T09:45:53.476Z,12.23
2022-11-15T09:48:38.321Z,12.25
2022-11-15T09:51:32.649Z,12.28
2022-11-15T09:54:45.541Z,12.31
2022-11-15T09:56:49.592Z,12.33
2022-11-15T10:00:07.732Z,12.37
2022-11-15T10:03:26.721Z,12.40
2022-11-15T10:05:57.907Z,12.47
2022-11-15T10:08:49.490Z,12.46
2022-11-15T10:11:38.246Z,12.49
2022-11-15T10:14:14.951Z,12.52
2022-11-15T10:17:17.377Z,12.51
2022-11-15T10:20:11.339Z,12.55
2022-11-15T10:22:54.047Z,12.57
2022-11-15T10:25:31.945Z,12.60
2022-11-15T10:28:06.905Z,12.62
2022-11-15T10:30:42.122Z,12.64
2022-11-15T10:33:24.764Z,12.68
2022-11-15T10:36:14.496Z,12.70
2022-11-15T10:38:54.110Z,12.74
2022-11-15T10:41:28.157Z,12.75
2022-11-15T10:44:24.954Z,12.77
2022-11-15T10:46:57.900Z,12.79
2022-11-15T10:49:28.707Z,12.80
2022-11-15T10:52:14.063Z,12.83
2022-11-15T10:54:45.764Z,12.84
2022-11-15T10:57:18.880Z,12.87
2022-11-15T10:59:52.123Z,12.90
2022-11-15T11:02:28.408Z,12.93
2022-11-15T11:04:55.081Z,12.96
2022-11-15T11:07:28.563Z,13.00
2022-11-15T11:10:36.559Z,13.02
2022-11-15T11:13:16.608Z,13.05
2022-11-15T11:15:48.111Z,13.06
2022-11-15T11:18:26.446Z,13.10
2022-11-15T11:21:02.660Z,13.14
2022-11-15T11:23:32.971Z,13.16
2022-11-15T11:26:08.443Z,13.20
2022-11-15T11:28:54.236Z,13.23
2022-11-15T11:31:32.667Z,13.26
2022-11-15T11:34:35.131Z,13.26
2022-11-15T11:37:21.083Z,13.27
2022-11-15T11:39:59.676Z,13.27
2022-11-15T11:43:02.721Z,13.27
2022-11-15T11:45:35.348Z,13.26
2022-11-15T11:48:08.419Z,13.25
2022-11-15T11:50:37.580Z,13.25
2022-11-15T11:53:10.888Z,13.26
2022-11-15T11:55:58.778Z,13.28
2022-11-15T11:58:47.190Z,13.28
2022-11-15T12:01:31.138Z,13.30
2022-11-15T12:04:12.742Z,13.32
2022-11-15T12:06:43.589Z,13.32
2022-11-15T12:09:22.701Z,13.33
2022-11-15T12:11:49.200Z,13.34
2022-11-15T12:14:47.046Z,13.36
2022-11-15T12:17:14.723Z,13.35
2022-11-15T12:19:43.991Z,13.38
2022-11-15T12:22:29.288Z,13.38
2022-11-15T12:25:03.512Z,13.37
2022-11-15T12:27:51.998Z,13.38
2022-11-15T12:33:39.643Z,13.40
2022-11-15T12:36:32.528Z,13.39
2022-11-15T12:39:07.658Z,13.41
2022-11-15T12:41:42.643Z,13.41
2022-11-15T12:44:31.904Z,13.40
2022-11-15T12:46:58.412Z,13.41
2022-11-15T12:49:25.490Z,13.41
2022-11-15T12:51:53.114Z,13.41
2022-11-15T12:54:23.100Z,13.42
2022-11-15T12:57:04.756Z,13.43
2022-11-15T12:59:54.585Z,13.44
2022-11-15T13:02:31.367Z,13.44
2022-11-15T13:05:16.219Z,13.44
2022-11-15T13:07:43.389Z,13.42
2022-11-15T13:10:12.962Z,13.41
2022-11-15T13:12:43.005Z,13.40
2022-11-15T13:15:12.602Z,13.36
2022-11-15T13:17:46.578Z,13.35
2022-11-15T13:20:15.936Z,13.33
2022-11-15T13:22:51.825Z,13.31
2022-11-15T13:25:33.567Z,13.28
2022-11-15T13:28:07.636Z,13.26
2022-11-15T13:30:34.670Z,13.24
2022-11-15T13:33:10.960Z,13.24
2022-11-15T13:35:41.429Z,13.21
2022-11-15T13:38:21.130Z,13.22
2022-11-15T13:40:47.658Z,13.24
2022-11-15T13:43:38.235Z,13.23
2022-11-15T13:46:13.471Z,13.22
2022-11-15T13:48:44.783Z,13.21
2022-11-15T13:51:19.228Z,13.21
2022-11-15T13:53:49.872Z,13.23
2022-11-15T13:56:20.089Z,13.23
2022-11-15T13:58:47.304Z,13.22
2022-11-15T14:01:20.846Z,13.22
2022-11-15T14:03:55.506Z,13.21
2022-11-15T14:06:25.824Z,13.19
2022-11-15T14:09:02.900Z,13.17
2022-11-15T14:11:30.847Z,13.18
2022-11-15T14:14:09.393Z,13.15
2022-11-15T14:16:37.992Z,13.12
2022-11-15T14:19:06.754Z,13.11
2022-11-15T14:21:33.854Z,13.11
2022-11-15T14:24:22.573Z,13.08
2022-11-15T14:26:49.478Z,13.07
2022-11-15T14:29:30.966Z,13.06
2022-11-15T14:32:15.820Z,13.04
2022-11-15T14:34:42.462Z,13.03
2022-11-15T14:37:20.622Z,12.98
2022-11-15T14:39:47.347Z,12.97
2022-11-15T14:42:13.966Z,12.94
2022-11-15T14:44:45.729Z,12.91
2022-11-15T14:47:12.999Z,12.87
2022-11-15T14:49:40.481Z,12.85
2022-11-15T14:52:31.614Z,12.78
2022-11-15T14:55:00.481Z,12.75
2022-11-15T14:57:27.278Z,12.70
2022-11-15T14:59:54.483Z,12.65
2022-11-15T15:02:23.767Z,12.60
2022-11-15T15:04:51.343Z,12.55
2022-11-15T15:07:18.462Z,12.49
2022-11-15T15:09:46.358Z,12.46
2022-11-15T15:12:24.213Z,12.42
2022-11-15T15:14:51.891Z,12.38
2022-11-15T15:17:18.829Z,12.34
2022-11-15T15:19:46.017Z,12.30
2022-11-15T15:22:16.416Z,12.26
2022-11-15T15:24:45.055Z,12.24
2022-11-15T15:27:12.256Z,12.21
2022-11-15T15:32:34.027Z,12.14
2022-11-15T15:35:01.060Z,12.12
2022-11-15T15:37:27.706Z,12.09
2022-11-15T15:39:56.780Z,12.07
2022-11-15T15:42:24.088Z,12.05
2022-11-15T15:44:52.038Z,12.04
2022-11-15T15:47:23.474Z,12.02
2022-11-15T15:49:51.755Z,12.02
2022-11-15T15:52:18.682Z,12.01
2022-11-15T15:54:46.111Z,12.00
2022-11-15T15:57:14.635Z,11.97
2022-11-15T15:59:41.935Z,11.96
2022-11-15T16:02:14.710Z,11.95
2022-11-15T16:04:42.023Z,11.94
2022-11-15T16:07:18.453Z,11.94
2022-11-15T16:10:01.185Z,11.95
2022-11-15T16:12:34.987Z,11.94
2022-11-15T16:15:03.203Z,11.94
2022-11-15T16:17:34.555Z,11.92
2022-11-15T16:20:02.464Z,11.91
2022-11-15T16:22:30.030Z,11.89
2022-11-15T16:24:57.934Z,11.88
2022-11-15T16:27:24.719Z,11.87
2022-11-15T16:29:51.878Z,11.85
2022-11-15T16:32:18.474Z,11.84
2022-11-15T16:34:48.990Z,11.83
2022-11-15T16:37:25.224Z,11.81
2022-11-15T16:39:55.903Z,11.80
2022-11-15T16:42:24.957Z,11.79
2022-11-15T16:44:52.165Z,11.78
2022-11-15T16:47:27.479Z,11.76
2022-11-15T16:49:54.319Z,11.74
2022-11-15T16:52:21.638Z,11.73
2022-11-15T16:54:48.921Z,11.73
2022-11-15T16:57:16.433Z,11.71
2022-11-15T16:59:43.608Z,11.68
2022-11-15T17:02:13.708Z,11.66
2022-11-15T17:04:40.916Z,11.64
2022-11-15T17:07:08.622Z,11.61
2022-11-15T17:09:35.570Z,11.59
2022-11-15T17:12:02.154Z,11.58
2022-11-15T17:14:29.424Z,11.58
2022-11-15T17:16:55.926Z,11.57
2022-11-15T17:19:23.156Z,11.57
2022-11-15T17:21:50.019Z,11.56
2022-11-15T17:24:17.607Z,11.56
2022-11-15T17:26:44.339Z,11.55
2022-11-15T17:29:11.390Z,11.55
2022-11-15T17:31:38.824Z,11.54
2022-11-15T17:34:06.546Z,11.52
2022-11-15T17:36:34.200Z,11.51
2022-11-15T17:39:01.007Z,11.50
2022-11-15T17:41:29.184Z,11.50
2022-11-15T17:44:00.037Z,11.48
2022-11-15T17:46:28.492Z,11.47
2022-11-15T17:48:56.427Z,11.47
2022-11-15T17:51:24.462Z,11.46
2022-11-15T17:53:51.753Z,11.45
2022-11-15T17:56:24.070Z,11.44
2022-11-15T17:58:53.210Z,11.44
2022-11-15T18:01:32.789Z,11.44
2022-11-15T18:04:02.317Z,11.44
2022-11-15T18:06:31.253Z,11.44
2022-11-15T18:08:59.333Z,11.44
2022-11-15T18:11:34.793Z,11.45
2022-11-15T18:14:04.739Z,11.47
2022-11-15T18:16:32.330Z,11.48
2022-11-15T18:18:59.859Z,11.48
2022-11-15T18:21:29.704Z,11.49
2022-11-15T18:24:32.325Z,11.49
2022-11-15T18:27:00.094Z,11.51
2022-11-15T18:29:28.010Z,11.51
2022-11-15T18:31:55.700Z,11.52
2022-11-15T18:34:32.327Z,11.54
2022-11-15T18:37:00.351Z,11.55
2022-11-15T18:39:27.674Z,11.56
2022-11-15T18:41:54.407Z,11.58
2022-11-15T18:44:21.775Z,11.59
2022-11-15T18:46:48.666Z,11.60
2022-11-15T18:49:17.320Z,11.61
2022-11-15T18:51:44.036Z,11.63
2022-11-15T18:54:12.821Z,11.64
2022-11-15T18:56:40.076Z,11.65
2022-11-15T18:59:08.899Z,11.66
2022-11-15T19:01:42.156Z,11.68
2022-11-15T19:04:12.196Z,11.70
2022-11-15T19:06:41.889Z,11.70
2022-11-15T19:09:11.064Z,11.71
2022-11-15T19:11:39.722Z,11.72
2022-11-15T19:14:14.849Z,11.72
2022-11-15T19:16:51.952Z,11.72
2022-11-15T19:19:24.769Z,11.73
2022-11-15T19:21:52.296Z,11.72
2022-11-15T19:24:19.858Z,11.74
2022-11-15T19:26:46.921Z,11.73
2022-11-15T19:29:14.462Z,11.75
2022-11-15T19:31:41.532Z,11.76
2022-11-15T19:34:08.720Z,11.77
2022-11-15T19:36:39.344Z,11.78
2022-11-15T19:39:10.259Z,11.78
2022-11-15T19:41:38.481Z,11.79
2022-11-15T19:44:06.595Z,11.78
2022-11-15T19:46:33.539Z,11.78
2022-11-15T19:49:00.801Z,11.78
2022-11-15T19:51:30.722Z,11.78
2022-11-15T19:54:03.817Z,11.79
2022-11-15T19:56:30.408Z,11.79
2022-11-15T19:58:58.307Z,11.78
2022-11-15T20:01:30.197Z,11.78
2022-11-15T20:03:59.725Z,11.78
2022-11-15T20:06:34.769Z,11.76
2022-11-15T20:09:02.421Z,11.75
2022-11-15T20:11:29.241Z,11.75
2022-11-15T20:14:02.498Z,11.72
2022-11-15T20:16:29.703Z,11.71
2022-11-15T20:18:57.359Z,11.69
2022-11-15T20:21:24.468Z,11.67
2022-11-15T20:23:52.215Z,11.66
2022-11-15T20:26:19.907Z,11.65
2022-11-15T20:28:49.348Z,11.64
2022-11-15T20:31:16.550Z,11.61
2022-11-15T20:33:44.277Z,11.60
2022-11-15T20:36:12.966Z,11.58
2022-11-15T20:38:40.095Z,11.57
2022-11-15T20:41:06.801Z,11.55
2022-11-15T20:43:33.693Z,11.54
2022-11-15T20:46:00.597Z,11.52
2022-11-15T20:48:27.291Z,11.52
2022-11-15T20:51:07.683Z,11.50
2022-11-15T20:53:35.722Z,11.50
2022-11-15T20:56:07.884Z,11.49
2022-11-15T20:58:36.307Z,11.49
2022-11-15T21:01:07.777Z,11.49
2022-11-15T21:03:35.530Z,11.47
2022-11-15T21:06:02.954Z,11.47
2022-11-15T21:08:53.362Z,11.46
2022-11-15T21:11:39.289Z,11.46
2022-11-15T21:14:09.503Z,11.46
2022-11-15T21:16:38.011Z,11.44
2022-11-15T21:19:06.615Z,11.41
2022-11-15T21:21:34.217Z,11.41
2022-11-15T21:24:04.130Z,11.41
2022-11-15T21:26:30.795Z,11.40
2022-11-15T21:28:58.240Z,11.40
